Cincinnati, OH

2:57 PM EDT on May 03, 2015 (GMT -0400)
Butler County Regional | | Change Station
CLOSE
Current Station
Airport
Location: Hamilton,
Elevation: 633 ft
Nearby Weather Stations

Elev 633 ft 39.36 °N, 84.52 °W | Updated 4 minutes ago

Partly Cloudy
Partly Cloudy
78 °F
Feels Like 78 °F
N
9
Wind Variable Wind from WSW

Today
High -- | Low -- °F
--% Chance of Precip.
Yesterday
High -- | Low -- °F
Precip. -- in
6:37 AM 8:32 PM
Full, 100% visible
Pressure 30.09 in
Visibility 10.0 miles
Clouds Scattered Clouds 7000 ft
Dew Point 47 °F
Humidity 33%
Rainfall 0.00 in
Snow Depth Not available.
UV 8 out of 12
Pollen 10.30 out of 12
Air Quality Not available.
Flu Activity Regional
METAR KHAO 031853Z AUTO 24008KT 10SM SCT070 26/08 A3010 RMK AO2 SLP190 T02560083

More Conditions Fewer Conditions

Pressure 30.09 in
Visibility 10.0 miles
Clouds Scattered Clouds 7000 ft
Dew Point 47 °F
Humidity 33%
Rainfall 0.00 in
Snow Depth Not available.
UV 8 out of 12
Pollen 10.30 out of 12
Air Quality Not available.
Flu Activity Regional
METAR KHAO 031853Z AUTO 24008KT 10SM SCT070 26/08 A3010 RMK AO2 SLP190 T02560083

More Conditions Fewer Conditions

Nepal has a long way to go to dig out and rebuild from a devastating earthquake. We have teamed up with several charities and organizations to make contributing to the relief effort as easy as possible.
How you can help: Portlight Strategies | Red Cross

10-Day Weather Forecast

Almanac

Astronomy

May. 03, 2015 Rise Set
Actual Time
Civil Twilight
Nautical Twilight
Astronomical Twilight
Moon
Length of Visible Light
Length of Day
Tomorrow will be .
, % of the Moon is Illuminated

Today's Extremes

State Highs State Lows

Community

WunderPhotos

Upload Photos

1,818,310 photos uploaded!

WunderBlogs® & News

Nearby

Air Quality

  Air Quality AQ Index Pollutant
Not available.

Snow Depth

Station Depth Elevation

Earthquake Activity

City Distance Mag. Time & Date
Minimum magnitude displayed is 2.5.

Coastal Water Temperatures

Place Temperature

Stations

Nearby Weather Stations

Station Location Temp. Windchill Dew Point Humidity Wind Precip. Elev Updated Type